St John, Virgin Islands
Current Conditions -  °F | °C
As of 7:00 PM on Tuesday 25 Nov 2014 (Local Time) from TUPJ Reporting Station
Scattered Clouds Scattered Clouds  
Wind Chill: 27°   Ceiling: Unl
Heat Index: 29°   Visibility: 6mi
Dew Point: 22°   Wind: 14mph
Humidity: 74%   Direction: 110°ESE
Pressure: 30"   Gusts: NA
Location:  18.3333°N, 64.7943°W
Report Text: TUPJ 252300Z 11012KT 9999 SCT019 27/22 Q1016 RMK A3002
Loading
Personal Weather Stations






























Interactive Weather Map New forecast layout! Learn more

10-Day Weather Forecast

Advertisements
Track Severe Weather on mobile